Time;durP1;ratioP1;P1;durP2;ratioP2;P2;SDS_P1;SDS_P2;PMS_P1;PMS_P2;Temp;Humidity;BMP_temperature;BMP_pressure;BME280_temperature;BME280_humidity;BME280_pressure;Samples;Min_cycle;Max_cycle;Signal;HPM_P1;HPM_P2
2022/09/11 00:01:06;;;;;;;12.02;2.75;;;13.40;99.90;;;;;;5030646;28;20522;-60
2022/09/11 00:03:32;;;;;;;5.72;2.80;;;13.40;99.90;;;;;;5031353;28;20041;-63
2022/09/11 00:06:03;;;;;;;8.45;3.05;;;13.50;99.90;;;;;;5017590;28;20029;-61
2022/09/11 00:08:30;;;;;;;;;;;13.50;99.90;;;;;;5029376;28;20033;-60
2022/09/11 00:11:11;;;;;;;6.57;2.58;;;13.40;99.90;;;;;;5030415;28;19913;-63
2022/09/11 00:13:38;;;;;;;6.43;2.40;;;13.50;99.90;;;;;;5031818;28;20080;-61
2022/09/11 00:16:06;;;;;;;8.23;3.03;;;13.40;99.90;;;;;;5031260;28;20033;-62
2022/09/11 00:18:34;;;;;;;8.52;2.90;;;13.40;99.90;;;;;;5029828;28;20064;-61
2022/09/11 00:21:02;;;;;;;6.10;2.75;;;13.40;99.90;;;;;;5030704;28;20033;-61
2022/09/11 00:23:28;;;;;;;6.32;3.17;;;13.40;99.90;;;;;;5030619;28;20168;-61
2022/09/11 00:25:54;;;;;;;6.60;2.50;;;13.40;99.90;;;;;;5029312;28;20037;-61
2022/09/11 00:28:23;;;;;;;12.43;3.05;;;13.40;99.90;;;;;;5031013;28;20029;-62
2022/09/11 00:31:07;;;;;;;5.43;2.83;;;13.40;99.90;;;;;;5029096;28;20026;-62
2022/09/11 00:33:34;;;;;;;8.98;2.90;;;13.40;99.90;;;;;;5031325;28;20049;-61
2022/09/11 00:36:02;;;;;;;7.70;2.75;;;13.40;99.90;;;;;;5025230;28;20030;-59
2022/09/11 00:38:32;;;;;;;12.77;3.30;;;13.40;99.90;;;;;;5030267;28;20251;-61
2022/09/11 00:41:00;;;;;;;8.82;3.38;;;13.40;99.90;;;;;;5028968;28;20488;-61
2022/09/11 00:43:28;;;;;;;9.32;3.25;;;13.50;99.90;;;;;;5031192;28;20041;-61
2022/09/11 00:46:02;;;;;;;9.50;3.65;;;13.50;99.90;;;;;;5027174;28;20041;-61
2022/09/11 00:48:32;;;;;;;9.52;3.70;;;13.50;99.90;;;;;;5028894;28;20042;-61
2022/09/11 00:51:02;;;;;;;5.80;3.38;;;13.50;99.90;;;;;;5027706;28;20036;-61
2022/09/11 00:53:32;;;;;;;6.20;3.20;;;13.50;99.90;;;;;;5030861;28;20045;-60
2022/09/11 00:56:02;;;;;;;12.75;3.25;;;13.40;99.90;;;;;;5030453;28;20037;-61
2022/09/11 00:58:32;;;;;;;4.65;2.72;;;13.40;99.90;;;;;;5030757;28;20048;-60
2022/09/11 01:00:58;;;;;;;8.07;3.00;;;13.40;99.90;;;;;;5028888;28;20037;-60
2022/09/11 01:03:25;;;;;;;13.00;3.30;;;13.40;99.90;;;;;;5030616;28;20404;-61
2022/09/11 01:05:53;;;;;;;8.15;3.00;;;13.40;99.90;;;;;;5027473;28;20040;-62
2022/09/11 01:08:19;;;;;;;7.07;2.88;;;13.40;99.90;;;;;;5028142;28;20409;-60
2022/09/11 01:11:15;;;;;;;7.70;3.15;;;13.40;99.90;;;;;;5030023;28;20036;-61
2022/09/11 01:13:44;;;;;;;8.27;3.40;;;13.40;99.90;;;;;;5028382;28;20087;-61
2022/09/11 01:16:48;;;;;;;8.65;3.10;;;13.40;99.90;;;;;;5031253;28;20113;-61
2022/09/11 01:19:43;;;;;;;7.05;3.08;;;13.40;99.90;;;;;;4978345;28;20494;-63
2022/09/11 01:22:43;;;;;;;7.22;3.50;;;13.40;99.90;;;;;;5029128;28;20029;-61
2022/09/11 01:25:14;;;;;;;9.13;3.17;;;13.40;99.90;;;;;;5030230;28;20033;-59
2022/09/11 01:27:41;;;;;;;7.25;3.38;;;13.40;99.90;;;;;;5029395;28;20050;-61
2022/09/11 01:30:09;;;;;;;4.93;2.70;;;13.40;99.90;;;;;;5027012;28;20033;-61
2022/09/11 01:32:44;;;;;;;6.47;3.05;;;13.40;99.90;;;;;;5028214;28;20037;-60
2022/09/11 01:35:26;;;;;;;13.80;4.13;;;13.40;99.90;;;;;;5028865;28;20021;-61
2022/09/11 01:38:07;;;;;;;8.98;3.50;;;13.40;99.90;;;;;;5012726;28;20033;-61
2022/09/11 01:40:53;;;;;;;9.63;3.50;;;13.40;99.90;;;;;;5025697;28;20648;-59
2022/09/11 01:43:25;;;;;;;5.60;3.15;;;13.40;99.90;;;;;;5028489;28;20043;-60
2022/09/11 01:45:53;;;;;;;9.25;3.33;;;13.40;99.90;;;;;;5029127;28;20029;-59
2022/09/11 01:48:28;;;;;;;6.15;3.53;;;13.50;99.90;;;;;;5028576;28;20094;-62
2022/09/11 01:50:56;;;;;;;10.93;3.60;;;13.40;99.90;;;;;;5026390;28;20030;-61
2022/09/11 01:53:26;;;;;;;10.65;3.72;;;13.40;99.90;;;;;;5017571;28;20160;-61
2022/09/11 01:56:06;;;;;;;9.68;3.78;;;13.40;99.90;;;;;;5029614;28;20044;-61
2022/09/11 01:58:35;;;;;;;6.82;3.90;;;13.50;99.90;;;;;;5028206;28;20048;-61
2022/09/11 02:01:17;;;;;;;6.90;3.13;;;13.40;99.90;;;;;;5028030;28;20040;-62
2022/09/11 02:04:06;;;;;;;11.40;3.58;;;13.40;99.90;;;;;;5030293;28;20048;-61
2022/09/11 02:06:36;;;;;;;10.80;3.35;;;13.40;99.90;;;;;;5012673;28;20037;-62
2022/09/11 02:09:10;;;;;;;7.15;2.78;;;13.40;99.90;;;;;;5027589;28;20507;-61
2022/09/11 02:11:40;;;;;;;10.52;3.50;;;13.50;99.90;;;;;;5027395;28;20537;-61
2022/09/11 02:14:28;;;;;;;9.93;3.10;;;13.50;99.90;;;;;;5028875;28;20033;-62
2022/09/11 02:17:30;;;;;;;5.47;3.25;;;13.50;99.90;;;;;;5028958;28;20045;-61
2022/09/11 02:19:59;;;;;;;9.63;3.33;;;13.50;99.90;;;;;;5028748;28;20440;-61
2022/09/11 02:22:25;;;;;;;6.22;3.28;;;13.50;99.90;;;;;;5028126;28;20053;-61
2022/09/11 02:24:51;;;;;;;9.52;3.55;;;13.50;99.90;;;;;;5028874;28;20076;-60
2022/09/11 02:27:22;;;;;;;9.23;3.30;;;13.50;99.90;;;;;;5027615;28;20546;-62
2022/09/11 02:29:48;;;;;;;7.97;3.40;;;13.50;99.90;;;;;;5027907;28;20029;-60
2022/09/11 02:32:14;;;;;;;9.75;3.17;;;13.50;99.90;;;;;;5026995;28;20061;-62
2022/09/11 02:34:41;;;;;;;7.45;3.85;;;13.60;99.90;;;;;;5029327;28;20087;-61
2022/09/11 02:37:25;;;;;;;6.30;3.28;;;13.60;99.90;;;;;;5027521;28;20030;-61
2022/09/11 02:40:13;;;;;;;7.88;3.88;;;13.60;99.90;;;;;;5030047;28;20064;-60
2022/09/11 02:43:19;;;;;;;5.65;3.40;;;13.60;99.90;;;;;;5027895;28;20092;-61
2022/09/11 02:46:01;;;;;;;7.20;3.60;;;13.60;99.90;;;;;;5025964;28;20150;-61
2022/09/11 02:48:26;;;;;;;6.70;3.30;;;13.60;99.90;;;;;;5028908;28;20072;-60
2022/09/11 02:51:07;;;;;;;7.75;3.80;;;13.60;99.90;;;;;;5027303;28;20065;-60
2022/09/11 02:53:43;;;;;;;9.75;3.63;;;13.60;99.90;;;;;;5028881;28;20061;-62
2022/09/11 02:56:19;;;;;;;15.05;4.30;;;13.60;99.90;;;;;;5027290;28;20056;-62
2022/09/11 02:58:55;;;;;;;9.70;3.95;;;13.60;99.90;;;;;;5026743;28;20041;-61
2022/09/11 03:01:21;;;;;;;7.13;4.15;;;13.60;99.90;;;;;;5026736;28;20044;-62
2022/09/11 03:03:47;;;;;;;11.52;4.65;;;13.60;99.90;;;;;;5028663;28;20064;-62
2022/09/11 03:06:17;;;;;;;8.45;3.92;;;13.60;99.90;;;;;;5027729;28;20471;-61
2022/09/11 03:08:43;;;;;;;6.82;4.07;;;13.60;99.90;;;;;;5029111;28;20073;-60
2022/09/11 03:11:08;;;;;;;8.18;4.55;;;13.60;99.90;;;;;;5031266;28;20720;-61
2022/09/11 03:13:35;;;;;;;10.07;4.22;;;13.70;99.90;;;;;;5031998;28;20064;-62
2022/09/11 03:16:03;;;;;;;12.02;4.53;;;13.70;99.90;;;;;;5029973;28;20029;-61
2022/09/11 03:18:29;;;;;;;13.23;4.85;;;13.70;99.90;;;;;;5032664;28;20037;-61
2022/09/11 03:20:55;;;;;;;11.10;4.47;;;13.70;99.90;;;;;;5031242;28;20029;-60
2022/09/11 03:23:21;;;;;;;8.70;4.55;;;13.60;99.90;;;;;;5031879;28;20083;-63
2022/09/11 03:25:47;;;;;;;12.50;5.03;;;13.70;99.90;;;;;;5032503;28;20037;-61
2022/09/11 03:28:13;;;;;;;9.95;5.63;;;13.70;99.90;;;;;;5030358;28;20048;-61
2022/09/11 03:30:40;;;;;;;10.48;5.13;;;13.70;99.90;;;;;;5032012;28;20037;-61
2022/09/11 03:33:06;;;;;;;16.23;5.60;;;13.70;99.90;;;;;;5030685;28;20041;-61
2022/09/11 03:35:32;;;;;;;12.77;5.18;;;13.70;99.90;;;;;;5031764;28;20033;-61
2022/09/11 03:37:58;;;;;;;8.93;5.78;;;13.70;99.90;;;;;;5032397;28;20045;-62
2022/09/11 03:40:24;;;;;;;10.77;5.85;;;13.70;99.90;;;;;;5029859;28;20546;-60
2022/09/11 03:42:50;;;;;;;13.38;6.30;;;13.70;99.90;;;;;;5032117;28;20026;-61
2022/09/11 03:45:16;;;;;;;16.52;7.20;;;13.80;99.90;;;;;;5032096;28;20037;-60
2022/09/11 03:47:41;;;;;;;15.05;6.32;;;13.80;99.90;;;;;;5031203;28;20474;-61
2022/09/11 03:50:08;;;;;;;11.23;6.28;;;13.80;99.90;;;;;;5030850;28;20154;-61
2022/09/11 03:52:34;;;;;;;15.15;6.93;;;13.80;99.90;;;;;;5031001;28;20048;-62
2022/09/11 03:55:01;;;;;;;14.43;6.78;;;13.80;99.90;;;;;;5030087;28;20024;-62
2022/09/11 03:57:27;;;;;;;13.10;6.68;;;13.80;99.90;;;;;;5028878;28;20041;-62
2022/09/11 03:59:54;;;;;;;15.65;7.47;;;13.80;99.90;;;;;;5032525;28;20588;-62
2022/09/11 04:02:22;;;;;;;12.90;7.00;;;13.80;99.90;;;;;;5030800;28;20034;-62
2022/09/11 04:04:47;;;;;;;19.73;7.57;;;13.80;99.90;;;;;;5028923;28;20030;-60
2022/09/11 04:07:13;;;;;;;21.48;8.20;;;13.80;99.90;;;;;;5032207;28;20037;-61
2022/09/11 04:09:38;;;;;;;16.15;8.02;;;13.80;99.90;;;;;;5027188;28;20033;-61
2022/09/11 04:12:04;;;;;;;18.70;7.93;;;13.80;99.90;;;;;;5032137;28;20037;-61
2022/09/11 04:14:30;;;;;;;14.57;7.80;;;13.70;99.90;;;;;;5028479;28;20025;-61
2022/09/11 04:16:56;;;;;;;17.42;8.38;;;13.80;99.90;;;;;;5032291;28;20033;-60
2022/09/11 04:19:22;;;;;;;22.27;8.27;;;13.80;99.90;;;;;;5030300;28;20471;-62
2022/09/11 04:21:48;;;;;;;17.10;8.20;;;13.80;99.90;;;;;;5029850;28;20152;-61
2022/09/11 04:24:14;;;;;;;22.42;8.65;;;13.80;99.90;;;;;;5028665;28;20149;-61
2022/09/11 04:26:40;;;;;;;16.55;8.98;;;13.80;99.90;;;;;;5030438;28;20573;-61
2022/09/11 04:29:05;;;;;;;14.30;8.13;;;13.80;99.90;;;;;;5030846;28;20535;-61
2022/09/11 04:31:34;;;;;;;15.57;8.70;;;13.80;99.90;;;;;;5026986;28;20120;-61
2022/09/11 04:34:00;;;;;;;16.58;8.13;;;13.80;99.90;;;;;;5028322;28;20120;-61
2022/09/11 04:36:26;;;;;;;18.38;8.60;;;13.80;99.90;;;;;;5027751;28;20112;-61
2022/09/11 04:38:56;;;;;;;18.90;8.88;;;13.80;99.90;;;;;;5021109;28;20379;-62
2022/09/11 04:41:23;;;;;;;17.48;9.38;;;13.80;99.90;;;;;;5017059;28;20037;-60
2022/09/11 04:43:54;;;;;;;18.23;9.43;;;13.80;99.90;;;;;;5029342;28;20032;-61
2022/09/11 04:46:19;;;;;;;16.40;9.82;;;13.90;99.90;;;;;;5027100;28;20025;-61
2022/09/11 04:48:47;;;;;;;18.40;10.52;;;13.80;99.90;;;;;;5028144;28;20655;-61
2022/09/11 04:51:31;;;;;;;21.55;11.00;;;13.90;99.90;;;;;;5031351;28;20034;-60
2022/09/11 04:53:57;;;;;;;21.67;11.10;;;13.90;99.90;;;;;;5030592;28;20086;-61
2022/09/11 04:56:28;;;;;;;19.92;11.48;;;13.90;99.90;;;;;;5031591;28;20052;-60
2022/09/11 04:58:56;;;;;;;23.40;11.70;;;13.90;99.90;;;;;;5030314;28;20029;-60
2022/09/11 05:01:23;;;;;;;20.65;10.93;;;14.00;99.90;;;;;;5029420;28;20241;-62
2022/09/11 05:03:49;;;;;;;20.27;12.10;;;14.00;99.90;;;;;;5028171;28;20033;-60
2022/09/11 05:06:15;;;;;;;24.45;12.65;;;14.00;99.90;;;;;;5029352;28;20355;-61
2022/09/11 05:08:43;;;;;;;27.85;14.18;;;14.00;99.90;;;;;;5030468;28;20037;-61
2022/09/11 05:11:14;;;;;;;25.13;13.60;;;14.00;99.90;;;;;;5027932;28;20037;-61
2022/09/11 05:13:40;;;;;;;26.90;14.65;;;14.00;99.90;;;;;;5030608;28;20029;-62
2022/09/11 05:16:11;;;;;;;27.45;14.70;;;14.10;99.90;;;;;;5030473;28;20128;-62
2022/09/11 05:18:42;;;;;;;24.83;14.50;;;14.00;99.90;;;;;;5029768;28;20041;-61
2022/09/11 05:21:13;;;;;;;28.08;14.27;;;14.10;99.90;;;;;;5025917;28;20512;-61
2022/09/11 05:23:39;;;;;;;;;;;14.10;99.90;;;;;;5029067;28;20398;-60
2022/09/11 05:26:12;;;;;;;26.05;15.23;;;14.10;99.90;;;;;;5030105;28;19913;-61
2022/09/11 05:28:37;;;;;;;27.70;15.45;;;14.10;99.90;;;;;;5027071;28;20069;-61
2022/09/11 05:31:16;;;;;;;26.52;15.73;;;14.20;99.90;;;;;;5029496;28;20073;-61
2022/09/11 05:33:43;;;;;;;32.35;15.48;;;14.20;99.90;;;;;;5028757;28;20045;-60
2022/09/11 05:36:10;;;;;;;25.38;15.57;;;14.20;99.90;;;;;;5030672;28;20163;-60
2022/09/11 05:38:36;;;;;;;30.20;16.00;;;14.30;99.90;;;;;;5027184;28;20084;-61
2022/09/11 05:41:05;;;;;;;28.25;15.32;;;14.20;99.90;;;;;;5030725;28;20057;-62
2022/09/11 05:43:34;;;;;;;29.67;15.60;;;14.20;99.90;;;;;;5020390;28;20025;-61
2022/09/11 05:46:01;;;;;;;27.52;16.73;;;14.30;99.90;;;;;;5018996;28;20033;-61
2022/09/11 05:48:28;;;;;;;28.20;14.48;;;14.30;99.90;;;;;;5028712;28;20623;-61
2022/09/11 05:50:58;;;;;;;29.50;16.00;;;14.20;99.90;;;;;;5028413;28;20116;-60
2022/09/11 05:53:24;;;;;;;28.65;16.63;;;14.10;99.90;;;;;;5025917;28;20033;-62
2022/09/11 05:55:50;;;;;;;27.00;16.42;;;14.20;99.90;;;;;;5027600;28;20097;-60
2022/09/11 05:58:16;;;;;;;30.33;17.85;;;14.20;99.90;;;;;;5027707;28;20039;-60
2022/09/11 06:00:46;;;;;;;27.42;17.05;;;14.30;99.90;;;;;;5029499;28;20041;-61
2022/09/11 06:03:12;;;;;;;28.85;18.08;;;14.30;99.90;;;;;;5025468;28;20038;-61
2022/09/11 06:05:39;;;;;;;32.28;18.45;;;14.20;99.90;;;;;;5029441;28;20030;-61
2022/09/11 06:08:06;;;;;;;29.63;17.67;;;14.30;99.90;;;;;;5028234;28;20049;-61
2022/09/11 06:10:32;;;;;;;30.65;18.17;;;14.30;99.90;;;;;;5027102;28;20030;-61
2022/09/11 06:12:57;;;;;;;29.88;18.10;;;14.30;99.90;;;;;;5028905;28;20029;-61
2022/09/11 06:15:24;;;;;;;35.78;18.98;;;14.30;99.90;;;;;;5029879;28;20029;-60
2022/09/11 06:17:50;;;;;;;30.17;18.30;;;14.30;99.90;;;;;;5027315;28;20029;-61
2022/09/11 06:20:15;;;;;;;31.80;18.38;;;14.40;99.90;;;;;;5028711;28;20029;-61
2022/09/11 06:22:41;;;;;;;33.47;19.25;;;14.40;99.90;;;;;;5026725;28;20037;-62
2022/09/11 06:25:07;;;;;;;29.30;18.33;;;14.40;99.90;;;;;;5029272;28;20446;-61
2022/09/11 06:27:33;;;;;;;33.95;18.30;;;14.40;99.90;;;;;;5027666;28;20037;-61
2022/09/11 06:29:59;;;;;;;32.53;18.58;;;14.50;99.90;;;;;;5030147;28;20095;-61
2022/09/11 06:32:24;;;;;;;32.55;18.80;;;14.50;99.90;;;;;;5027872;28;20054;-62
2022/09/11 06:34:50;;;;;;;32.30;18.90;;;14.50;99.90;;;;;;5018886;28;20105;-62
2022/09/11 06:37:16;;;;;;;32.45;18.58;;;14.50;99.90;;;;;;5024022;28;20037;-61
2022/09/11 06:39:41;;;;;;;30.55;18.25;;;14.50;99.90;;;;;;5023989;28;20036;-61
2022/09/11 06:42:07;;;;;;;34.85;18.90;;;14.60;99.90;;;;;;5023467;28;20068;-61
2022/09/11 06:44:33;;;;;;;39.40;18.70;;;14.60;99.90;;;;;;5023441;28;20452;-62
2022/09/11 06:46:59;;;;;;;29.58;17.13;;;14.60;99.90;;;;;;5015979;28;20081;-61
2022/09/11 06:49:25;;;;;;;31.38;18.98;;;14.60;99.90;;;;;;5029067;28;20037;-62
2022/09/11 06:51:52;;;;;;;31.25;18.58;;;14.60;99.90;;;;;;5028679;28;20607;-61
2022/09/11 06:54:18;;;;;;;30.83;18.30;;;14.60;99.90;;;;;;5029109;28;20474;-62
2022/09/11 06:56:44;;;;;;;33.78;19.15;;;14.70;99.90;;;;;;5027941;28;20068;-61
2022/09/11 06:59:10;;;;;;;35.40;18.65;;;14.80;99.90;;;;;;5029138;28;20069;-62
2022/09/11 07:01:38;;;;;;;32.88;17.92;;;14.80;99.90;;;;;;5028318;28;20087;-61
2022/09/11 07:04:04;;;;;;;29.35;17.67;;;14.80;99.90;;;;;;5029330;28;20048;-61
2022/09/11 07:06:30;;;;;;;28.23;17.98;;;14.90;99.90;;;;;;5029438;28;20032;-62
2022/09/11 07:09:01;;;;;;;30.80;17.35;;;14.80;99.90;;;;;;5028560;28;20029;-62
2022/09/11 07:11:31;;;;;;;28.02;17.50;;;14.80;99.90;;;;;;5028596;28;20481;-62
2022/09/11 07:13:58;;;;;;;30.55;17.20;;;14.80;99.90;;;;;;5028929;28;20508;-62
2022/09/11 07:16:24;;;;;;;28.77;16.25;;;14.90;99.90;;;;;;5029004;28;20061;-61
2022/09/11 07:18:50;;;;;;;28.63;17.10;;;14.90;99.90;;;;;;5028322;28;20037;-62
2022/09/11 07:21:21;;;;;;;28.33;16.80;;;14.90;99.90;;;;;;5028965;28;20039;-62
2022/09/11 07:23:49;;;;;;;29.55;17.65;;;14.90;99.90;;;;;;5028489;28;20036;-61
2022/09/11 07:26:16;;;;;;;25.88;16.27;;;15.00;99.90;;;;;;5028541;28;20025;-60
2022/09/11 07:28:42;;;;;;;29.58;16.63;;;15.00;99.90;;;;;;5028342;28;20542;-62
2022/09/11 07:31:13;;;;;;;30.23;16.45;;;15.00;99.90;;;;;;5028957;28;20132;-62
2022/09/11 07:33:44;;;;;;;30.50;16.75;;;15.00;99.90;;;;;;5028428;28;20095;-61
2022/09/11 07:36:17;;;;;;;32.70;16.70;;;15.10;99.90;;;;;;5029151;28;20029;-63
2022/09/11 07:38:45;;;;;;;26.30;15.27;;;15.20;99.90;;;;;;5028087;28;20466;-62
2022/09/11 07:41:13;;;;;;;29.60;15.55;;;15.30;99.90;;;;;;5028277;28;20029;-60
2022/09/11 07:43:40;;;;;;;25.88;14.90;;;15.30;99.90;;;;;;5028301;28;20466;-62
2022/09/11 07:46:08;;;;;;;24.58;14.80;;;15.30;99.90;;;;;;5029054;28;20030;-61
2022/09/11 07:48:35;;;;;;;21.65;13.43;;;15.40;99.90;;;;;;5028832;28;20044;-61
2022/09/11 07:51:06;;;;;;;26.00;14.27;;;15.40;99.90;;;;;;5028650;28;20025;-62
2022/09/11 07:53:34;;;;;;;23.40;14.25;;;15.50;99.90;;;;;;5028910;28;20037;-61
2022/09/11 07:56:05;;;;;;;23.50;12.80;;;15.60;99.90;;;;;;5029714;28;20637;-62
2022/09/11 07:58:35;;;;;;;22.80;13.55;;;15.50;99.90;;;;;;5032768;28;20057;-62
2022/09/11 08:01:02;;;;;;;20.55;12.50;;;15.60;99.90;;;;;;5032282;28;20025;-61
2022/09/11 08:03:29;;;;;;;22.50;12.52;;;15.60;99.90;;;;;;5032653;28;20390;-61
2022/09/11 08:05:59;;;;;;;22.63;13.20;;;15.60;99.90;;;;;;5031853;28;20029;-61
2022/09/11 08:08:28;;;;;;;23.50;13.77;;;15.70;99.90;;;;;;5032201;28;20451;-62
2022/09/11 08:11:01;;;;;;;23.65;12.82;;;15.80;99.90;;;;;;5030672;28;20048;-61
2022/09/11 08:13:27;;;;;;;19.98;11.52;;;15.80;99.90;;;;;;5032443;28;20026;-61
2022/09/11 08:15:52;;;;;;;20.92;12.23;;;15.90;99.90;;;;;;5031847;28;20040;-61
2022/09/11 08:18:18;;;;;;;21.48;12.25;;;16.00;99.90;;;;;;5032402;28;20033;-61
2022/09/11 08:20:44;;;;;;;22.27;12.70;;;16.10;99.90;;;;;;5031477;28;20396;-62
2022/09/11 08:23:11;;;;;;;21.90;12.73;;;16.00;99.90;;;;;;5032269;28;20115;-62
2022/09/11 08:25:37;;;;;;;21.02;12.40;;;16.00;99.90;;;;;;5030367;28;20038;-61
2022/09/11 08:28:04;;;;;;;20.10;12.85;;;15.90;99.90;;;;;;5032079;28;20044;-62
2022/09/11 08:30:31;;;;;;;23.00;13.07;;;16.00;99.90;;;;;;5032111;28;20510;-61
2022/09/11 08:32:58;;;;;;;20.80;10.90;;;16.20;99.90;;;;;;5031000;28;20045;-62
2022/09/11 08:35:24;;;;;;;18.58;11.35;;;16.20;99.90;;;;;;5031959;28;20216;-61
2022/09/11 08:37:51;;;;;;;19.17;11.60;;;16.30;99.90;;;;;;5031276;28;20029;-61
2022/09/11 08:40:17;;;;;;;19.35;11.25;;;16.40;99.90;;;;;;5031069;28;20025;-62
2022/09/11 08:42:45;;;;;;;17.58;10.80;;;16.40;99.90;;;;;;5030430;28;20038;-59
2022/09/11 08:45:17;;;;;;;17.15;10.50;;;16.40;99.90;;;;;;5030919;28;20093;-62
2022/09/11 08:47:50;;;;;;;17.08;10.25;;;16.40;99.90;;;;;;5030998;28;20183;-61
2022/09/11 08:50:27;;;;;;;19.65;10.13;;;16.30;99.90;;;;;;5031798;28;20109;-63
2022/09/11 08:52:55;;;;;;;15.48;10.07;;;16.20;99.90;;;;;;5031074;28;20374;-62
2022/09/11 08:55:33;;;;;;;17.13;10.10;;;16.10;99.90;;;;;;5031625;28;20030;-62
2022/09/11 08:58:14;;;;;;;21.45;11.05;;;16.10;99.90;;;;;;5030707;28;20685;-61
2022/09/11 09:00:45;;;;;;;;;;;16.20;99.90;;;;;;5030910;28;20053;-62
2022/09/11 09:03:38;;;;;;;16.67;9.30;;;16.30;99.90;;;;;;5031541;28;19917;-63
2022/09/11 09:06:24;;;;;;;16.00;8.85;;;16.40;99.90;;;;;;5030499;28;20363;-62
2022/09/11 09:09:28;;;;;;;14.77;9.05;;;16.40;99.90;;;;;;5030475;28;20041;-62
2022/09/11 09:12:25;;;;;;;12.57;8.38;;;16.60;99.90;;;;;;5030601;28;20112;-62
2022/09/11 09:15:25;;;;;;;12.55;8.52;;;16.60;99.90;;;;;;5029085;28;20640;-60
2022/09/11 09:18:03;;;;;;;14.15;8.38;;;16.60;99.90;;;;;;5030548;28;20044;-63
2022/09/11 09:20:33;;;;;;;13.75;8.55;;;16.60;99.90;;;;;;5031573;28;20030;-62
2022/09/11 09:23:11;;;;;;;11.63;6.88;;;16.80;99.90;;;;;;5030359;28;20026;-62
2022/09/11 09:25:41;;;;;;;10.20;6.93;;;16.80;99.90;;;;;;5031184;28;20030;-62
2022/09/11 09:28:42;;;;;;;9.40;6.55;;;16.80;99.90;;;;;;5030572;28;20033;-61
2022/09/11 09:31:13;;;;;;;14.05;7.00;;;16.60;99.90;;;;;;5029968;28;20099;-61
2022/09/11 09:34:04;;;;;;;12.35;6.90;;;16.60;99.90;;;;;;5030941;28;20053;-62
2022/09/11 09:36:39;;;;;;;11.60;6.68;;;16.70;99.90;;;;;;5030917;28;20029;-62
2022/09/11 09:39:16;;;;;;;11.77;7.05;;;16.80;99.90;;;;;;5030115;28;20025;-61
2022/09/11 09:42:19;;;;;;;11.68;7.50;;;17.00;99.90;;;;;;5030383;28;20053;-62
2022/09/11 09:45:23;;;;;;;10.55;7.10;;;17.20;99.90;;;;;;5028564;28;20076;-62
2022/09/11 09:47:49;;;;;;;10.75;6.70;;;17.40;99.90;;;;;;5010090;28;20178;-63
2022/09/11 09:50:32;;;;;;;9.95;7.35;;;17.40;99.90;;;;;;5010542;28;20617;-62
2022/09/11 09:53:41;;;;;;;11.48;7.82;;;17.60;99.90;;;;;;5010148;28;20049;-61
2022/09/11 09:56:11;;;;;;;10.80;6.90;;;17.60;99.90;;;;;;5006467;28;20033;-62
2022/09/11 09:58:53;;;;;;;14.80;6.90;;;17.60;99.90;;;;;;5007907;28;20519;-62
2022/09/11 10:01:38;;;;;;;11.55;7.00;;;17.40;99.90;;;;;;4988196;28;20488;-62
2022/09/11 10:04:17;;;;;;;9.02;6.07;;;17.50;99.90;;;;;;4987413;28;20224;-62
2022/09/11 10:06:49;;;;;;;10.80;6.45;;;17.70;99.90;;;;;;4987838;28;20048;-62
2022/09/11 10:09:25;;;;;;;11.25;6.47;;;17.90;99.90;;;;;;4987913;28;20074;-62
2022/09/11 10:12:02;;;;;;;10.02;5.95;;;18.00;99.90;;;;;;4987277;28;20026;-62
2022/09/11 10:14:33;;;;;;;7.93;5.72;;;18.10;99.90;;;;;;4995140;28;20131;-62
2022/09/11 10:17:01;;;;;;;8.02;5.47;;;18.10;99.90;;;;;;5006755;28;20026;-63
2022/09/11 10:19:45;;;;;;;9.70;5.28;;;18.10;99.90;;;;;;5007172;28;20037;-62
2022/09/11 10:22:31;;;;;;;8.32;5.45;;;18.00;99.90;;;;;;5007302;28;20069;-62
2022/09/11 10:25:11;;;;;;;13.35;7.15;;;17.80;99.90;;;;;;5004101;28;20030;-62
2022/09/11 10:27:39;;;;;;;;;;;17.40;99.90;;;;;;5021681;28;20448;-62
2022/09/11 10:30:05;;;;;;;13.88;7.32;;;17.00;99.90;;;;;;5028897;28;19963;-61
2022/09/11 10:32:35;;;;;;;11.57;7.85;;;16.80;99.90;;;;;;5029440;28;20065;-62
2022/09/11 10:35:08;;;;;;;15.57;9.00;;;16.60;99.90;;;;;;5029051;28;20060;-62
2022/09/11 10:37:33;;;;;;;13.55;8.75;;;16.50;99.90;;;;;;5030130;28;20037;-61
2022/09/11 10:40:07;;;;;;;15.07;8.80;;;16.60;99.90;;;;;;5028990;28;20462;-63
2022/09/11 10:42:34;;;;;;;15.80;8.73;;;16.60;99.90;;;;;;5028625;28;20031;-62
2022/09/11 10:45:11;;;;;;;13.77;8.35;;;16.70;99.90;;;;;;5027771;28;20033;-62
2022/09/11 10:47:37;;;;;;;14.75;9.38;;;16.70;99.90;;;;;;5029972;28;20505;-61
2022/09/11 10:50:22;;;;;;;14.32;9.07;;;16.80;99.90;;;;;;5028841;28;20128;-61
2022/09/11 10:52:57;;;;;;;15.23;8.93;;;16.80;99.90;;;;;;5029040;28;20029;-62
2022/09/11 10:55:32;;;;;;;15.23;8.75;;;16.90;99.90;;;;;;5029574;28;20030;-62
2022/09/11 10:58:12;;;;;;;14.50;9.02;;;16.90;99.90;;;;;;5028646;28;20072;-61
2022/09/11 11:00:38;;;;;;;14.23;7.90;;;17.00;99.90;;;;;;5028744;28;20033;-62
2022/09/11 11:03:15;;;;;;;11.00;7.57;;;17.10;99.90;;;;;;5028704;28;20038;-62
2022/09/11 11:05:56;;;;;;;12.20;7.22;;;17.20;99.90;;;;;;5029471;28;20382;-62
2022/09/11 11:08:22;;;;;;;;;;;17.30;99.90;;;;;;5029784;28;20068;-62
2022/09/11 11:11:11;;;;;;;11.88;7.00;;;17.40;99.90;;;;;;5028789;28;19952;-62
2022/09/11 11:14:03;;;;;;;12.40;7.75;;;17.40;99.90;;;;;;5029339;28;20052;-62
2022/09/11 11:16:44;;;;;;;11.43;6.82;;;17.40;99.90;;;;;;5008434;28;20049;-62
2022/09/11 11:19:37;;;;;;;11.40;7.35;;;17.50;99.90;;;;;;5008761;28;20034;-62
2022/09/11 11:22:22;;;;;;;9.68;6.10;;;17.50;99.90;;;;;;5008673;28;20034;-61
2022/09/11 11:24:58;;;;;;;9.65;7.03;;;17.60;99.90;;;;;;5009407;28;20030;-61
2022/09/11 11:27:50;;;;;;;9.35;6.22;;;17.60;99.90;;;;;;5009572;28;20036;-62
2022/09/11 11:30:19;;;;;;;9.38;6.35;;;17.60;99.90;;;;;;5024506;28;20033;-63
2022/09/11 11:32:57;;;;;;;10.95;5.95;;;17.70;99.90;;;;;;5033233;28;20049;-62
2022/09/11 11:35:26;;;;;;;10.10;6.63;;;17.80;99.90;;;;;;5033243;28;20502;-62
2022/09/11 11:38:21;;;;;;;14.35;6.90;;;17.70;99.90;;;;;;5032176;28;20437;-62
2022/09/11 11:41:08;;;;;;;7.72;5.20;;;17.60;99.90;;;;;;5032367;28;20044;-62
2022/09/11 11:43:39;;;;;;;9.20;6.30;;;17.50;99.90;;;;;;5032062;28;20119;-63
2022/09/11 11:46:22;;;;;;;8.15;5.47;;;17.40;99.90;;;;;;5031269;28;20112;-62
2022/09/11 11:48:51;;;;;;;9.50;6.15;;;17.30;99.90;;;;;;5032714;28;20037;-63
2022/09/11 11:51:19;;;;;;;9.48;5.68;;;17.40;99.90;;;;;;5032594;28;20165;-62
2022/09/11 11:53:58;;;;;;;8.00;5.57;;;17.50;99.90;;;;;;5032758;28;20082;-62
2022/09/11 11:56:37;;;;;;;7.55;5.35;;;17.70;99.90;;;;;;5031743;28;20496;-62
2022/09/11 11:59:21;;;;;;;13.80;5.43;;;17.80;99.90;;;;;;5031229;28;20038;-62
2022/09/11 12:01:57;;;;;;;7.80;5.63;;;18.00;99.90;;;;;;5029704;28;20030;-63
2022/09/11 12:04:41;;;;;;;6.90;5.10;;;18.30;99.90;;;;;;5017125;28;20037;-61
2022/09/11 12:07:23;;;;;;;9.93;5.78;;;18.30;99.90;;;;;;5010630;28;20387;-62
2022/09/11 12:09:51;;;;;;;8.55;5.40;;;18.50;99.90;;;;;;5012647;28;20038;-61
2022/09/11 12:12:18;;;;;;;8.18;5.30;;;19.00;99.90;;;;;;5012284;28;20030;-62
2022/09/11 12:14:55;;;;;;;8.38;5.40;;;19.20;99.90;;;;;;5031021;28;20033;-61
2022/09/11 12:17:27;;;;;;;10.00;6.20;;;19.00;99.90;;;;;;5032343;28;20037;-62
2022/09/11 12:20:12;;;;;;;7.68;4.72;;;18.60;99.90;;;;;;5031443;28;20552;-61
2022/09/11 12:22:48;;;;;;;8.73;5.63;;;18.60;99.90;;;;;;5032335;28;20029;-62
2022/09/11 12:25:20;;;;;;;7.93;5.38;;;18.70;99.90;;;;;;5031162;28;20029;-62
2022/09/11 12:28:21;;;;;;;10.75;5.43;;;18.70;99.90;;;;;;5025818;28;20024;-61
2022/09/11 12:30:58;;;;;;;7.25;4.82;;;18.70;99.90;;;;;;5029079;28;20110;-63
2022/09/11 12:33:42;;;;;;;7.15;5.03;;;18.70;99.90;;;;;;5028455;28;20033;-63
2022/09/11 12:36:18;;;;;;;7.10;5.35;;;18.80;99.90;;;;;;5031234;28;20088;-63
2022/09/11 12:38:54;;;;;;;7.53;5.20;;;18.90;99.90;;;;;;5031955;28;20055;-63
2022/09/11 12:41:27;;;;;;;8.75;5.28;;;19.00;99.90;;;;;;5030706;28;20037;-63
2022/09/11 12:43:53;;;;;;;7.80;5.43;;;19.10;99.90;;;;;;5030250;28;20041;-63
2022/09/11 12:46:22;;;;;;;6.05;4.43;;;19.30;99.90;;;;;;5030676;28;20187;-62
2022/09/11 12:48:51;;;;;;;7.18;5.28;;;19.30;99.90;;;;;;5031538;28;20029;-62
2022/09/11 12:51:24;;;;;;;7.18;5.78;;;19.30;99.90;;;;;;5031083;28;20069;-63
2022/09/11 12:53:53;;;;;;;7.30;4.95;;;19.10;99.90;;;;;;5031807;28;20386;-62
2022/09/11 12:56:23;;;;;;;7.75;5.13;;;19.00;99.90;;;;;;5030441;28;20120;-63
2022/09/11 12:58:59;;;;;;;7.10;5.30;;;19.20;99.90;;;;;;5028196;28;20772;-62
2022/09/11 13:01:29;;;;;;;6.32;5.20;;;19.40;99.90;;;;;;5031252;28;20037;-61
2022/09/11 13:04:01;;;;;;;9.65;4.82;;;19.50;99.90;;;;;;5030425;28;20029;-61